ADDS METAR Data INFO
IDs: Format: Raw Decoded Include TAF

Data at: 1557 UTC 12 Dec 2017

KHPN 121456Z AUTO 15005KT 9SM -RA SCT028 BKN033 06/05 A2957 RMK AO2 SLP017 P0000 60001 T00610050 58034
KHPN 121356Z 16004KT 9SM -RA SCT028 BKN033 06/04 A2961 RMK AO2 SLP030 P0001 T00610039
KHPN 121256Z 14011KT 6SM -RA BR SCT023 BKN035 06/03 A2963 RMK AO2 SLP040 P0000 T00560033
KHPN 121156Z 12005KT 9SM -RA BKN023 04/02 A2967 RMK AO2 DZE15RAB15 SLP053 P0000 60000 T00390017 10044 20006 58039
KHPN 121056Z 15003KT 9SM -DZ SCT028 BKN034 03/01 A2971 RMK AO2 DZB03 SLP068 P0000 T00330006
KHPN 120956Z 12005KT 10SM SCT028 BKN034 02/M01 A2975 RMK AO2 DZB46E56 SLP079 P0000 T00221011
KHPN 120856Z 09004KT 10SM BKN032 BKN110 02/M03 A2979 RMK AO2 SLP092 T00221028 58034
KHPN 120756Z 00000KT 10SM BKN032 BKN110 01/M04 A2983 RMK AO2 SLP107 T00111039
KHPN 120656Z 11003KT 10SM SCT033 BKN070 01/M04 A2987 RMK AO2 SLP120 T00111044
KHPN 120556Z 11004KT 10SM BKN090 01/M05 A2989 RMK AO2 SLP127 T00111050 10017 20000 58026
KHPN 120456Z 00000KT 10SM BKN100 OVC120 00/M04 A2992 RMK AO2 SLP139 T00001039 400331006
KHPN 120356Z 00000KT 10SM BKN085 01/M05 A2994 RMK AO2 SLP146 T00111050
KHPN 120256Z 00000KT 10SM BKN085 01/M06 A2996 RMK AO2 SLP154 T00111061 58009
KHPN 120156Z 00000KT 10SM SCT085 01/M06 A2997 RMK AO2 SLP155 T00111061
KHPN 120056Z 00000KT 10SM FEW100 01/M06 A3000 RMK AO2 SLP166 T00061061
KHPN 112356Z 11003KT 10SM FEW120 01/M06 A2999 RMK AO2 SLP163 T00111061 10033 20006 53004
KHPN 112256Z 00000KT 10SM CLR 01/M07 A2998 RMK AO2 SLP161 T00111067
KHPN 112156Z 35003KT 10SM CLR 02/M07 A2997 RMK AO2 SLP155 T00171067
KHPN 112056Z 30004KT 10SM FEW045 02/M07 A2998 RMK AO2 SLP159 T00221067 53007
KHPN 111956Z 30009KT 10SM SCT046 03/M07 A2997 RMK AO2 SLP156 T00281067
KHPN 111856Z 30008KT 10SM SCT043 03/M07 A2996 RMK AO2 SLP151 T00331067
KHPN 111756Z 31010KT 10SM FEW040 03/M07 A2996 RMK AO2 SLP152 T00281067 10028 21006 58014
KHPN 111656Z 27007KT 10SM FEW037 02/M07 A2999 RMK AO2 SLP162 T00221067
KHPN 111556Z 30011KT 10SM FEW040 02/M06 A3000 RMK AO2 SLP167 T00221061
KHPN 111456Z 29010KT 10SM FEW030 01/M05 A3000 RMK AO2 SLP167 T00111050 51007
KHPN 111356Z VRB03KT 10SM CLR 00/M06 A3000 RMK AO2 SLP166 T00001056
KHPN 111256Z 25004KT 10SM FEW030 FEW070 M01/M06 A2999 RMK AO2 SLP163 T10061056
KHPN 111156Z 29010KT 10SM OVC070 00/M06 A2998 RMK AO2 SLP159 T00001056 10006 20000 51009
KHPN 111056Z 25005KT 10SM OVC055 00/M06 A2997 RMK AO2 SLP157 T00001056
KHPN 110956Z VRB05KT 10SM BKN048 OVC070 00/M06 A2996 RMK AO2 SLP153 T00001056
KHPN 110856Z 27004KT 10SM OVC090 01/M06 A2995 RMK AO2 SLP150 T00061061 55005
KHPN 110756Z 26005KT 10SM BKN095 00/M07 A2995 RMK AO2 SLP150 T00001067
KHPN 110656Z 25004KT 10SM FEW070 BKN090 01/M07 A2996 RMK AO2 SLP154 T00061067
KHPN 110556Z 26005KT 10SM BKN070 01/M07 A2997 RMK AO2 SLP155 T00061067 10011 20006 58003
KHPN 110456Z 24003KT 10SM BKN100 01/M07 A2998 RMK AO2 SLP159 T00061067 400281028